createdAt,value
2023-02-16T00:01:55.466Z,48.35
2023-02-16T00:04:28.035Z,57.25
2023-02-16T00:06:55.316Z,46.15
2023-02-16T00:09:23.466Z,39.83
2023-02-16T00:12:10.980Z,38.85
2023-02-16T00:14:39.481Z,39.42
2023-02-16T00:17:06.144Z,58.63
2023-02-16T00:19:37.083Z,47.05
2023-02-16T00:22:05.282Z,67.43
2023-02-16T00:24:32.012Z,43.25
2023-02-16T00:26:59.595Z,36.33
2023-02-16T00:29:34.478Z,35.75
2023-02-16T00:32:03.414Z,30.73
2023-02-16T00:34:35.722Z,58.65
2023-02-16T00:37:13.042Z,50.97
2023-02-16T00:39:43.823Z,35.47
2023-02-16T00:42:29.477Z,59.00
2023-02-16T00:44:58.362Z,43.88
2023-02-16T00:47:31.226Z,44.80
2023-02-16T00:49:58.338Z,49.83
2023-02-16T00:52:39.928Z,55.13
2023-02-16T00:55:16.387Z,53.75
2023-02-16T00:57:48.253Z,41.10
2023-02-16T01:00:30.142Z,31.27
2023-02-16T01:03:00.081Z,25.27
2023-02-16T01:05:30.250Z,39.40
2023-02-16T01:08:16.683Z,29.80
2023-02-16T01:11:02.425Z,33.30
2023-02-16T01:13:29.798Z,36.90
2023-02-16T01:15:56.759Z,33.50
2023-02-16T01:18:23.471Z,30.95
2023-02-16T01:20:52.325Z,42.78
2023-02-16T01:23:18.797Z,35.17
2023-02-16T01:25:45.412Z,38.22
2023-02-16T01:28:24.730Z,35.17
2023-02-16T01:30:53.019Z,34.22
2023-02-16T01:33:20.513Z,34.15
2023-02-16T01:35:47.283Z,29.63
2023-02-16T01:38:28.349Z,31.85
2023-02-16T01:41:22.806Z,37.33
2023-02-16T01:43:58.921Z,30.13
2023-02-16T01:46:50.027Z,31.65
2023-02-16T01:49:20.607Z,33.38
2023-02-16T01:52:14.329Z,47.45
2023-02-16T01:54:52.716Z,37.05
2023-02-16T01:58:00.950Z,32.90
2023-02-16T02:00:49.302Z,43.75
2023-02-16T02:03:47.042Z,39.80
2023-02-16T02:06:21.210Z,53.38
2023-02-16T02:08:56.640Z,37.00
2023-02-16T02:11:44.878Z,52.30
2023-02-16T02:14:27.850Z,40.70
2023-02-16T02:17:03.892Z,34.55
2023-02-16T02:19:38.701Z,37.75
2023-02-16T02:22:36.393Z,36.60
2023-02-16T02:25:47.710Z,37.30
2023-02-16T02:28:26.720Z,37.08
2023-02-16T02:31:12.052Z,33.85
2023-02-16T02:34:16.280Z,35.92
2023-02-16T02:37:06.246Z,35.03
2023-02-16T02:39:44.840Z,34.60
2023-02-16T02:42:23.438Z,34.53
2023-02-16T02:44:55.392Z,46.40
2023-02-16T02:47:40.198Z,44.35
2023-02-16T02:50:35.711Z,39.53
2023-02-16T02:53:05.248Z,40.78
2023-02-16T02:55:54.036Z,47.38
2023-02-16T02:58:41.969Z,47.25
2023-02-16T03:01:12.032Z,47.67
2023-02-16T03:03:48.136Z,46.05
2023-02-16T03:06:22.116Z,43.15
2023-02-16T03:08:54.560Z,44.00
2023-02-16T03:11:42.242Z,48.80
2023-02-16T03:14:26.960Z,51.80
2023-02-16T03:17:16.072Z,48.03
2023-02-16T03:20:03.999Z,50.10
2023-02-16T03:22:50.751Z,46.58
2023-02-16T03:25:37.152Z,45.90
2023-02-16T03:28:28.206Z,50.92
2023-02-16T03:30:55.807Z,49.88
2023-02-16T03:33:24.260Z,50.47
2023-02-16T03:35:51.396Z,44.45
2023-02-16T03:38:18.032Z,47.55
2023-02-16T03:40:46.992Z,46.95
2023-02-16T03:43:13.510Z,47.35
2023-02-16T03:45:43.959Z,47.60
2023-02-16T03:48:11.091Z,46.00
2023-02-16T03:50:38.036Z,53.78
2023-02-16T03:53:07.683Z,51.95
2023-02-16T03:55:39.889Z,50.63
2023-02-16T03:58:08.731Z,55.33
2023-02-16T04:00:36.385Z,58.67
2023-02-16T04:03:04.145Z,56.42
2023-02-16T04:05:30.685Z,56.65
2023-02-16T04:07:57.491Z,49.60
2023-02-16T04:10:24.347Z,51.22
2023-02-16T04:12:51.104Z,44.65
2023-02-16T04:15:21.109Z,57.75
2023-02-16T04:17:50.156Z,48.15
2023-02-16T04:20:24.473Z,50.85
2023-02-16T04:22:53.703Z,53.92
2023-02-16T04:25:22.493Z,43.92
2023-02-16T04:27:50.259Z,43.45
2023-02-16T04:30:19.802Z,53.60
2023-02-16T04:32:46.390Z,47.10
2023-02-16T04:35:15.261Z,47.10
2023-02-16T04:37:41.779Z,61.55
2023-02-16T04:40:14.357Z,47.90
2023-02-16T04:42:41.884Z,51.23
2023-02-16T04:45:09.430Z,54.08
2023-02-16T04:47:36.072Z,50.42
2023-02-16T04:50:02.863Z,48.10
2023-02-16T04:52:29.471Z,49.42
2023-02-16T04:54:55.939Z,45.97
2023-02-16T04:57:24.150Z,64.22
2023-02-16T04:59:50.696Z,51.28
2023-02-16T05:02:17.222Z,56.78
2023-02-16T05:04:43.794Z,53.03
2023-02-16T05:07:10.337Z,51.40
2023-02-16T05:09:36.823Z,47.63
2023-02-16T05:12:21.998Z,54.42
2023-02-16T05:14:48.568Z,51.00
2023-02-16T05:17:15.037Z,56.10
2023-02-16T05:19:45.619Z,52.17
2023-02-16T05:22:12.610Z,58.00
2023-02-16T05:24:39.439Z,51.20
2023-02-16T05:27:10.480Z,54.85
2023-02-16T05:29:39.429Z,59.63
2023-02-16T05:32:06.372Z,58.72
2023-02-16T05:34:35.123Z,51.05
2023-02-16T05:37:01.597Z,60.85
2023-02-16T05:39:28.230Z,50.75
2023-02-16T05:41:54.737Z,47.80
2023-02-16T05:44:21.307Z,46.90
2023-02-16T05:46:48.007Z,44.55
2023-02-16T05:49:15.846Z,40.92
2023-02-16T05:51:45.266Z,47.35
2023-02-16T05:54:17.180Z,41.78
2023-02-16T05:56:46.257Z,39.25
2023-02-16T05:59:18.507Z,39.33
2023-02-16T06:01:50.598Z,43.47
2023-02-16T06:04:18.600Z,39.85
2023-02-16T06:06:45.291Z,38.47
2023-02-16T06:09:12.542Z,37.65
2023-02-16T06:11:39.410Z,35.20
2023-02-16T06:14:09.581Z,32.90
2023-02-16T06:16:37.947Z,39.38
2023-02-16T06:19:05.365Z,28.20
2023-02-16T06:21:32.435Z,31.05
2023-02-16T06:24:01.614Z,29.58
2023-02-16T06:26:28.280Z,28.80
2023-02-16T06:28:55.353Z,28.25
2023-02-16T06:31:22.534Z,29.85
2023-02-16T06:33:51.897Z,27.00
2023-02-16T06:36:19.360Z,22.75
2023-02-16T06:38:47.168Z,25.60
2023-02-16T06:41:31.079Z,26.15
2023-02-16T06:44:00.067Z,25.70
2023-02-16T06:46:27.305Z,25.73
2023-02-16T06:48:54.110Z,24.17
2023-02-16T06:51:20.989Z,25.00
2023-02-16T06:53:47.577Z,24.67
2023-02-16T06:56:14.105Z,20.55
2023-02-16T06:58:40.651Z,19.77
2023-02-16T07:01:07.603Z,19.35
2023-02-16T07:03:35.400Z,18.98
2023-02-16T07:06:02.470Z,17.30
2023-02-16T07:08:29.064Z,16.20
2023-02-16T07:10:55.853Z,16.25
2023-02-16T07:13:22.621Z,16.90
2023-02-16T07:15:49.156Z,22.02
2023-02-16T07:18:18.304Z,20.85
2023-02-16T07:20:44.894Z,17.92
2023-02-16T07:23:11.442Z,17.30
2023-02-16T07:25:38.079Z,17.85
2023-02-16T07:28:04.646Z,18.52
2023-02-16T07:30:31.471Z,16.85
2023-02-16T07:33:02.624Z,18.25
2023-02-16T07:35:29.183Z,16.63
2023-02-16T07:37:58.072Z,15.60
2023-02-16T07:40:25.577Z,18.45
2023-02-16T07:42:52.168Z,16.23
2023-02-16T07:45:19.827Z,18.08
2023-02-16T07:47:46.449Z,16.02
2023-02-16T07:50:15.080Z,15.50
2023-02-16T07:52:41.624Z,15.55
2023-02-16T07:55:11.439Z,15.18
2023-02-16T07:57:39.598Z,15.23
2023-02-16T08:00:07.776Z,15.18
2023-02-16T08:02:34.690Z,14.57
2023-02-16T08:05:01.538Z,15.60
2023-02-16T08:07:31.419Z,13.95
2023-02-16T08:09:57.944Z,15.98
2023-02-16T08:12:24.651Z,14.75
2023-02-16T08:14:51.192Z,15.70
2023-02-16T08:17:17.874Z,23.38
2023-02-16T08:19:44.379Z,19.42
2023-02-16T08:22:12.214Z,14.55
2023-02-16T08:24:38.694Z,15.15
2023-02-16T08:27:06.136Z,15.55
2023-02-16T08:29:33.358Z,15.20
2023-02-16T08:32:00.605Z,14.73
2023-02-16T08:34:27.482Z,14.82
2023-02-16T08:36:57.566Z,12.73
2023-02-16T08:39:27.504Z,14.60
2023-02-16T08:41:54.895Z,15.95
2023-02-16T08:44:23.772Z,14.60
2023-02-16T08:46:52.308Z,18.05
2023-02-16T08:49:21.881Z,15.85
2023-02-16T08:51:52.150Z,16.35
2023-02-16T08:54:26.978Z,17.80
2023-02-16T08:56:56.617Z,22.33
2023-02-16T08:59:26.618Z,16.80
2023-02-16T09:01:54.810Z,22.27
2023-02-16T09:04:21.515Z,18.67
2023-02-16T09:06:48.530Z,15.80
2023-02-16T09:09:15.403Z,18.13
2023-02-16T09:11:41.866Z,17.23
2023-02-16T09:14:09.349Z,16.42
2023-02-16T09:16:39.359Z,16.17
2023-02-16T09:19:06.888Z,16.23
2023-02-16T09:21:36.123Z,17.42
2023-02-16T09:24:04.827Z,18.60
2023-02-16T09:26:36.966Z,15.93
2023-02-16T09:29:03.792Z,16.83
2023-02-16T09:31:33.169Z,16.17
2023-02-16T09:34:05.072Z,12.38
2023-02-16T09:36:32.032Z,13.30
2023-02-16T09:38:59.559Z,13.43
2023-02-16T09:41:41.545Z,13.27
2023-02-16T09:44:33.064Z,11.60
2023-02-16T09:47:04.886Z,12.73
2023-02-16T09:49:40.808Z,12.02
2023-02-16T09:52:32.240Z,10.85
2023-02-16T09:55:00.708Z,12.27
2023-02-16T09:58:09.794Z,12.40
2023-02-16T10:00:51.083Z,13.00
2023-02-16T10:03:51.624Z,14.35
2023-02-16T10:06:27.051Z,14.85
2023-02-16T10:08:57.191Z,14.43
2023-02-16T10:11:38.932Z,12.68
2023-02-16T10:14:12.730Z,15.60
2023-02-16T10:19:23.499Z,13.48
2023-02-16T10:21:55.195Z,14.55
2023-02-16T10:24:21.870Z,12.95
2023-02-16T10:27:02.235Z,13.15
2023-02-16T10:29:31.201Z,13.25
2023-02-16T10:31:57.848Z,14.82
2023-02-16T10:34:51.074Z,12.50
2023-02-16T10:37:40.789Z,12.85
2023-02-16T10:40:23.536Z,13.13
2023-02-16T10:43:07.236Z,12.38
2023-02-16T10:45:45.199Z,13.77
2023-02-16T10:48:11.836Z,12.52
2023-02-16T10:50:38.821Z,14.77
2023-02-16T10:53:19.410Z,13.77
2023-02-16T10:55:46.262Z,13.60
2023-02-16T10:58:27.725Z,13.45
2023-02-16T11:01:18.899Z,12.75
2023-02-16T11:03:49.904Z,13.13
2023-02-16T11:06:25.581Z,15.68
2023-02-16T11:08:57.211Z,14.25
2023-02-16T11:11:28.946Z,14.45
2023-02-16T11:14:02.538Z,13.30
2023-02-16T11:16:30.712Z,14.07
2023-02-16T11:19:01.397Z,14.80
2023-02-16T11:21:43.281Z,14.52
2023-02-16T11:24:13.704Z,15.77
2023-02-16T11:26:40.451Z,13.75
2023-02-16T11:29:22.863Z,13.98
2023-02-16T11:31:51.703Z,14.60
2023-02-16T11:34:36.923Z,17.80
2023-02-16T11:37:26.099Z,13.75
2023-02-16T11:40:00.078Z,15.38
2023-02-16T11:42:43.973Z,16.38
2023-02-16T11:45:24.344Z,18.00
2023-02-16T11:47:57.818Z,16.33
2023-02-16T11:50:32.063Z,16.73
2023-02-16T11:53:15.800Z,14.85
2023-02-16T11:55:45.566Z,14.30
2023-02-16T11:58:27.583Z,16.52
2023-02-16T12:01:09.442Z,19.90
2023-02-16T12:04:03.897Z,23.75
2023-02-16T12:06:37.400Z,17.70
2023-02-16T12:09:03.968Z,18.52
2023-02-16T12:11:38.318Z,17.90
2023-02-16T12:14:18.300Z,22.40
2023-02-16T12:17:17.744Z,20.27
2023-02-16T12:19:48.060Z,17.70
2023-02-16T12:22:14.524Z,19.58
2023-02-16T12:24:59.664Z,21.25
2023-02-16T12:27:55.854Z,23.83
2023-02-16T12:30:46.779Z,19.67
2023-02-16T12:33:26.836Z,21.65
2023-02-16T12:36:20.295Z,19.00
2023-02-16T12:38:46.792Z,17.47
2023-02-16T12:41:41.662Z,17.98
2023-02-16T12:44:17.899Z,19.15
2023-02-16T12:46:48.639Z,17.05
2023-02-16T12:49:24.357Z,15.43
2023-02-16T12:51:58.988Z,17.95
2023-02-16T12:54:45.147Z,14.98
2023-02-16T12:57:17.526Z,16.77
2023-02-16T12:59:59.477Z,17.13
2023-02-16T13:02:34.187Z,26.17
2023-02-16T13:05:30.452Z,25.88
2023-02-16T13:08:06.332Z,21.30
2023-02-16T13:10:56.292Z,16.13
2023-02-16T13:13:27.055Z,18.02
2023-02-16T13:16:08.307Z,19.73
2023-02-16T13:18:44.713Z,19.88
2023-02-16T13:21:50.798Z,18.63
2023-02-16T13:24:17.718Z,18.75
2023-02-16T13:26:44.187Z,17.92
2023-02-16T13:29:37.589Z,19.63
2023-02-16T13:32:21.160Z,21.98
2023-02-16T13:35:00.171Z,18.65
2023-02-16T13:38:08.811Z,19.83
2023-02-16T13:40:53.817Z,16.98
2023-02-16T13:43:27.207Z,20.35
2023-02-16T13:45:54.590Z,18.00
2023-02-16T13:48:23.126Z,21.45
2023-02-16T13:50:59.913Z,20.83
2023-02-16T13:53:33.593Z,24.77
2023-02-16T13:56:21.997Z,21.65
2023-02-16T13:58:50.882Z,18.88
2023-02-16T14:01:32.496Z,19.38
2023-02-16T14:04:02.771Z,18.15
2023-02-16T14:06:43.167Z,20.58
2023-02-16T14:09:12.818Z,18.30
2023-02-16T14:11:53.077Z,19.48
2023-02-16T14:14:28.316Z,20.13
2023-02-16T14:16:54.913Z,19.75
2023-02-16T14:19:26.106Z,17.02
2023-02-16T14:21:55.999Z,18.33
2023-02-16T14:24:27.969Z,19.85
2023-02-16T14:26:59.759Z,21.20
2023-02-16T14:29:38.619Z,17.23
2023-02-16T14:32:26.469Z,18.50
2023-02-16T14:34:58.383Z,18.45
2023-02-16T14:37:34.367Z,19.25
2023-02-16T14:40:12.407Z,20.88
2023-02-16T14:42:48.074Z,20.35
2023-02-16T14:45:55.155Z,19.80
2023-02-16T14:48:33.596Z,18.73
2023-02-16T14:51:37.615Z,21.63
2023-02-16T14:54:26.003Z,22.42
2023-02-16T14:56:59.521Z,17.15
2023-02-16T14:59:39.370Z,20.92
2023-02-16T15:02:43.945Z,21.85
2023-02-16T15:05:23.874Z,18.02
2023-02-16T15:07:59.281Z,18.58
2023-02-16T15:10:27.605Z,19.42
2023-02-16T15:12:56.561Z,19.05
2023-02-16T15:15:45.846Z,18.70
2023-02-16T15:18:19.806Z,50.35
2023-02-16T15:20:49.053Z,29.67
2023-02-16T15:23:28.040Z,27.63
2023-02-16T15:26:07.246Z,27.70
2023-02-16T15:28:39.652Z,30.45
2023-02-16T15:31:13.290Z,34.33
2023-02-16T15:33:42.712Z,31.42
2023-02-16T15:36:13.398Z,23.05
2023-02-16T15:39:01.182Z,22.00
2023-02-16T15:41:32.921Z,26.65
2023-02-16T15:44:02.433Z,24.38
2023-02-16T15:46:43.592Z,24.50
2023-02-16T15:49:17.101Z,28.10
2023-02-16T15:51:45.785Z,25.95
2023-02-16T15:54:31.112Z,25.63
2023-02-16T15:57:03.968Z,27.17
2023-02-16T15:59:38.538Z,31.50
2023-02-16T16:02:15.657Z,27.48
2023-02-16T16:04:55.254Z,24.25
2023-02-16T16:07:39.779Z,24.58
2023-02-16T16:10:18.143Z,25.70
2023-02-16T16:12:48.402Z,22.83
2023-02-16T16:15:22.834Z,24.67
2023-02-16T16:17:52.914Z,28.52
2023-02-16T16:20:25.724Z,29.92
2023-02-16T16:22:58.709Z,35.28
2023-02-16T16:25:33.715Z,37.25
2023-02-16T16:28:01.323Z,34.55
2023-02-16T16:30:43.760Z,35.80
2023-02-16T16:33:13.316Z,33.80
2023-02-16T16:35:44.240Z,30.45
2023-02-16T16:38:37.697Z,28.38
2023-02-16T16:41:04.686Z,33.57
2023-02-16T16:43:35.001Z,32.90
2023-02-16T16:46:07.563Z,32.40
2023-02-16T16:48:36.502Z,32.38
2023-02-16T16:51:16.000Z,32.72
2023-02-16T16:54:04.202Z,32.15
2023-02-16T16:56:37.926Z,38.40
2023-02-16T17:01:34.182Z,62.90
2023-02-16T17:04:03.027Z,63.40
2023-02-16T17:06:30.193Z,58.35
2023-02-16T17:08:56.719Z,53.95
2023-02-16T17:11:23.187Z,50.70
2023-02-16T17:13:53.542Z,40.63
2023-02-16T17:16:26.282Z,79.82
2023-02-16T17:18:52.778Z,88.97
2023-02-16T17:21:19.960Z,64.55
2023-02-16T17:23:52.764Z,55.85
2023-02-16T17:26:19.803Z,66.65
2023-02-16T17:28:46.252Z,58.70
2023-02-16T17:31:12.781Z,56.83
2023-02-16T17:33:39.354Z,49.03
2023-02-16T17:36:07.491Z,47.65
2023-02-16T17:38:34.268Z,48.03
2023-02-16T17:41:00.849Z,50.85
2023-02-16T17:43:28.023Z,44.53
2023-02-16T17:45:56.911Z,49.20
2023-02-16T17:48:28.354Z,65.35
2023-02-16T17:50:55.807Z,80.15
2023-02-16T17:53:24.755Z,47.75
2023-02-16T17:55:54.296Z,51.28
2023-02-16T17:58:24.650Z,62.53
2023-02-16T18:00:51.684Z,54.75
2023-02-16T18:03:18.918Z,52.80
2023-02-16T18:05:45.465Z,51.55
2023-02-16T18:08:14.712Z,49.22
2023-02-16T18:10:52.722Z,43.47
2023-02-16T18:13:20.074Z,38.08
2023-02-16T18:15:50.287Z,38.33
2023-02-16T18:18:18.552Z,39.85
2023-02-16T18:20:45.722Z,41.17
2023-02-16T18:23:12.382Z,42.67
2023-02-16T18:25:41.371Z,42.72
2023-02-16T18:28:08.000Z,147.63
2023-02-16T18:30:34.693Z,230.05
2023-02-16T18:33:01.676Z,215.20
2023-02-16T18:35:28.201Z,129.50
2023-02-16T18:37:54.683Z,78.03
2023-02-16T18:40:21.271Z,67.80
2023-02-16T18:42:47.887Z,55.35
2023-02-16T18:45:14.579Z,59.08
2023-02-16T18:47:45.145Z,45.63
2023-02-16T18:50:14.499Z,46.03
2023-02-16T18:52:44.993Z,44.63
2023-02-16T18:55:15.815Z,42.78
2023-02-16T18:57:44.799Z,43.35
2023-02-16T19:00:14.748Z,44.67
2023-02-16T19:02:42.543Z,50.15
2023-02-16T19:05:10.321Z,42.83
2023-02-16T19:07:37.073Z,44.80
2023-02-16T19:10:05.612Z,46.50
2023-02-16T19:12:32.102Z,41.35
2023-02-16T19:14:58.615Z,47.22
2023-02-16T19:17:27.892Z,46.17
2023-02-16T19:19:54.330Z,75.30
2023-02-16T19:22:22.925Z,90.80
2023-02-16T19:24:51.739Z,60.53
2023-02-16T19:27:20.989Z,56.15
2023-02-16T19:29:47.475Z,49.33
2023-02-16T19:32:14.466Z,45.97
2023-02-16T19:34:40.922Z,40.53
2023-02-16T19:37:07.387Z,41.25
2023-02-16T19:39:34.749Z,50.17
2023-02-16T19:42:01.416Z,78.82
2023-02-16T19:44:27.962Z,110.35
2023-02-16T19:46:54.462Z,132.43
2023-02-16T19:49:21.010Z,103.60
2023-02-16T19:51:50.372Z,94.13
2023-02-16T19:54:19.219Z,70.38
2023-02-16T19:56:45.692Z,77.07
2023-02-16T19:59:12.204Z,97.55
2023-02-16T20:01:39.055Z,98.40
2023-02-16T20:04:05.621Z,88.03
2023-02-16T20:06:41.030Z,99.72
2023-02-16T20:09:12.208Z,88.05
2023-02-16T20:11:39.726Z,90.00
2023-02-16T20:14:06.859Z,72.25
2023-02-16T20:16:33.384Z,50.95
2023-02-16T20:19:00.376Z,42.55
2023-02-16T20:21:28.444Z,49.00
2023-02-16T20:23:58.044Z,48.40
2023-02-16T20:26:27.416Z,49.40
2023-02-16T20:28:54.105Z,52.13
2023-02-16T20:31:25.605Z,49.72
2023-02-16T20:33:54.942Z,48.70
2023-02-16T20:36:22.116Z,51.63
2023-02-16T20:38:50.317Z,49.67
2023-02-16T20:41:21.067Z,46.63
2023-02-16T20:43:47.720Z,50.50
2023-02-16T20:46:15.653Z,61.45
2023-02-16T20:48:42.207Z,88.93
2023-02-16T20:51:10.347Z,54.45
2023-02-16T20:53:36.873Z,51.03
2023-02-16T20:56:08.376Z,48.00
2023-02-16T20:58:36.510Z,45.72
2023-02-16T21:01:10.233Z,51.72
2023-02-16T21:03:36.889Z,50.45
2023-02-16T21:06:03.904Z,52.70
2023-02-16T21:08:30.519Z,51.05
2023-02-16T21:10:57.034Z,58.25
2023-02-16T21:13:26.093Z,51.00
2023-02-16T21:15:53.014Z,47.45
2023-02-16T21:18:19.488Z,48.60
2023-02-16T21:20:46.234Z,53.42
2023-02-16T21:23:13.384Z,48.47
2023-02-16T21:25:40.543Z,45.83
2023-02-16T21:28:07.031Z,43.72
2023-02-16T21:30:33.500Z,47.55
2023-02-16T21:32:59.984Z,51.55
2023-02-16T21:35:26.491Z,46.45
2023-02-16T21:37:53.117Z,47.30
2023-02-16T21:40:39.036Z,43.65
2023-02-16T21:43:05.509Z,46.03
2023-02-16T21:45:32.007Z,48.53
2023-02-16T21:48:17.134Z,45.45
2023-02-16T21:50:43.618Z,45.70
2023-02-16T21:53:10.401Z,48.30
2023-02-16T21:55:56.973Z,46.95
2023-02-16T21:58:26.879Z,45.80
2023-02-16T22:00:53.929Z,45.50
2023-02-16T22:03:20.735Z,45.92
2023-02-16T22:05:47.477Z,44.58
2023-02-16T22:08:14.722Z,44.50
2023-02-16T22:10:46.130Z,48.13
2023-02-16T22:13:13.543Z,48.78
2023-02-16T22:15:40.060Z,44.45
2023-02-16T22:18:06.726Z,44.42
2023-02-16T22:20:33.264Z,46.17
2023-02-16T22:22:59.799Z,45.35
2023-02-16T22:25:26.349Z,43.60
2023-02-16T22:27:52.998Z,50.40
2023-02-16T22:30:19.511Z,56.25
2023-02-16T22:32:46.185Z,59.20
2023-02-16T22:35:12.952Z,59.53
2023-02-16T22:37:39.536Z,57.05
2023-02-16T22:40:06.596Z,61.67
2023-02-16T22:42:33.173Z,92.13
2023-02-16T22:44:59.653Z,103.63
2023-02-16T22:47:26.144Z,46.92
2023-02-16T22:49:52.606Z,43.28
2023-02-16T22:52:19.177Z,44.38
2023-02-16T22:54:45.700Z,46.72
2023-02-16T22:57:14.445Z,46.22
2023-02-16T22:59:40.962Z,40.95
2023-02-16T23:02:07.404Z,59.58
2023-02-16T23:04:33.887Z,52.95
2023-02-16T23:07:00.349Z,48.42
2023-02-16T23:09:26.830Z,45.10
2023-02-16T23:11:53.277Z,41.38
2023-02-16T23:14:22.524Z,43.25
2023-02-16T23:16:52.199Z,45.38
2023-02-16T23:19:22.782Z,46.45
2023-02-16T23:21:49.261Z,47.72
2023-02-16T23:24:19.010Z,49.65
2023-02-16T23:26:48.355Z,49.10
2023-02-16T23:29:14.936Z,46.22
2023-02-16T23:31:43.402Z,46.40
2023-02-16T23:34:11.207Z,46.03
2023-02-16T23:36:38.950Z,57.05
2023-02-16T23:39:08.868Z,73.40
2023-02-16T23:41:36.097Z,50.20
2023-02-16T23:44:03.684Z,78.25
2023-02-16T23:46:31.256Z,49.38
2023-02-16T23:48:58.306Z,43.33
2023-02-16T23:51:25.029Z,41.42
2023-02-16T23:53:56.770Z,43.92
2023-02-16T23:56:25.779Z,42.95
2023-02-16T23:58:55.823Z,44.20
